createdAt,value
2023-01-25T00:00:50.282Z,64.28
2023-01-25T00:01:50.234Z,56.08
2023-01-25T00:02:50.224Z,51.38
2023-01-25T00:03:50.125Z,62.34
2023-01-25T00:04:50.140Z,53.66
2023-01-25T00:05:50.160Z,67.30
2023-01-25T00:06:50.132Z,65.39
2023-01-25T00:07:50.134Z,69.49
2023-01-25T00:08:50.134Z,55.52
2023-01-25T00:09:50.071Z,59.82
2023-01-25T00:10:50.053Z,69.57
2023-01-25T00:11:50.120Z,69.54
2023-01-25T00:12:50.089Z,71.88
2023-01-25T00:13:50.038Z,64.54
2023-01-25T00:14:49.997Z,64.15
2023-01-25T00:15:49.989Z,57.25
2023-01-25T00:16:50.095Z,65.22
2023-01-25T00:17:50.077Z,68.07
2023-01-25T00:18:50.440Z,63.78
2023-01-25T00:19:49.971Z,65.48
2023-01-25T00:20:49.957Z,67.00
2023-01-25T00:21:49.970Z,68.61
2023-01-25T00:22:50.836Z,67.89
2023-01-25T00:23:51.199Z,63.90
2023-01-25T00:24:53.355Z,67.93
2023-01-25T00:25:51.334Z,60.67
2023-01-25T00:26:52.577Z,65.68
2023-01-25T00:27:49.912Z,65.24
2023-01-25T00:28:49.893Z,62.08
2023-01-25T00:29:50.098Z,62.29
2023-01-25T00:30:51.406Z,61.77
2023-01-25T00:31:52.167Z,48.48
2023-01-25T00:32:50.734Z,63.65
2023-01-25T00:33:50.313Z,67.74
2023-01-25T00:34:50.947Z,63.27
2023-01-25T00:35:50.622Z,64.82
2023-01-25T00:36:50.205Z,49.92
2023-01-25T00:37:49.781Z,65.32
2023-01-25T00:38:49.787Z,67.68
2023-01-25T00:39:49.784Z,68.53
2023-01-25T00:40:49.774Z,66.20
2023-01-25T00:41:49.759Z,60.95
2023-01-25T00:42:52.253Z,66.87
2023-01-25T00:43:52.299Z,62.80
2023-01-25T00:44:53.196Z,65.21
2023-01-25T00:45:51.943Z,68.37
2023-01-25T00:46:50.423Z,68.13
2023-01-25T00:47:53.592Z,70.39
2023-01-25T00:48:51.051Z,59.15
2023-01-25T00:49:51.656Z,55.30
2023-01-25T00:50:49.934Z,56.76
2023-01-25T00:51:49.717Z,58.72
2023-01-25T00:53:22.800Z,69.26
2023-01-25T00:54:21.997Z,62.52
2023-01-25T00:54:51.841Z,47.76
2023-01-25T00:55:52.536Z,56.82
2023-01-25T00:57:22.893Z,62.22
2023-01-25T00:58:21.943Z,59.72
2023-01-25T00:59:21.935Z,62.41
2023-01-25T01:00:23.387Z,68.49
2023-01-25T01:00:52.381Z,46.99
2023-01-25T01:02:21.892Z,56.09
2023-01-25T01:03:21.994Z,54.72
2023-01-25T01:03:51.600Z,67.93
2023-01-25T01:05:21.884Z,63.59
2023-01-25T01:05:52.637Z,63.20
2023-01-25T01:07:23.005Z,68.84
2023-01-25T01:07:51.057Z,61.21
2023-01-25T01:08:49.437Z,62.46
2023-01-25T01:09:49.469Z,62.68
2023-01-25T01:10:49.471Z,64.45
2023-01-25T01:11:49.424Z,58.95
2023-01-25T01:12:49.403Z,56.12
2023-01-25T01:13:49.453Z,59.96
2023-01-25T01:14:49.477Z,55.05
2023-01-25T01:15:49.451Z,52.59
2023-01-25T01:16:49.410Z,59.12
2023-01-25T01:17:50.117Z,65.72
2023-01-25T01:18:49.391Z,48.63
2023-01-25T01:19:49.311Z,57.52
2023-01-25T01:20:49.341Z,64.44
2023-01-25T01:21:49.335Z,59.11
2023-01-25T01:22:49.273Z,58.82
2023-01-25T01:23:49.428Z,65.35
2023-01-25T01:24:49.456Z,48.30
2023-01-25T01:25:49.257Z,65.37
2023-01-25T01:26:49.260Z,65.42
2023-01-25T01:27:49.257Z,56.98
2023-01-25T01:28:49.262Z,51.83
2023-01-25T01:29:49.248Z,58.54
2023-01-25T01:30:49.196Z,62.79
2023-01-25T01:31:49.328Z,61.73
2023-01-25T01:32:49.298Z,62.49
2023-01-25T01:33:49.180Z,61.04
2023-01-25T01:34:49.181Z,67.32
2023-01-25T01:35:49.206Z,60.23
2023-01-25T01:36:49.144Z,58.77
2023-01-25T01:37:49.177Z,58.65
2023-01-25T01:38:49.110Z,65.37
2023-01-25T01:39:49.154Z,61.50
2023-01-25T01:40:49.113Z,61.73
2023-01-25T01:41:49.125Z,53.77
2023-01-25T01:42:49.065Z,54.40
2023-01-25T01:43:49.117Z,68.53
2023-01-25T01:44:50.161Z,61.13
2023-01-25T01:45:49.061Z,64.71
2023-01-25T01:46:49.064Z,59.79
2023-01-25T01:47:49.049Z,65.21
2023-01-25T01:48:49.072Z,68.23
2023-01-25T01:49:49.048Z,61.79
2023-01-25T01:50:48.993Z,69.33
2023-01-25T01:51:48.996Z,62.10
2023-01-25T01:52:48.979Z,64.26
2023-01-25T01:53:49.018Z,64.35
2023-01-25T01:54:48.938Z,68.40
2023-01-25T01:55:48.941Z,58.10
2023-01-25T01:56:48.942Z,55.21
2023-01-25T01:58:21.354Z,63.31
2023-01-25T01:58:48.971Z,66.81
2023-01-25T01:59:48.925Z,61.72
2023-01-25T02:00:48.910Z,66.90
2023-01-25T02:01:48.939Z,70.34
2023-01-25T02:02:48.941Z,59.74
2023-01-25T02:03:48.913Z,60.30
2023-01-25T02:04:48.829Z,58.66
2023-01-25T02:05:48.959Z,69.93
2023-01-25T02:06:48.826Z,65.81
2023-01-25T02:07:48.819Z,59.69
2023-01-25T02:08:48.837Z,55.31
2023-01-25T02:09:48.817Z,70.12
2023-01-25T02:10:48.881Z,62.24
2023-01-25T02:11:48.787Z,65.31
2023-01-25T02:12:48.761Z,51.61
2023-01-25T02:13:48.845Z,48.37
2023-01-25T02:14:48.743Z,60.91
2023-01-25T02:15:48.735Z,75.81
2023-01-25T02:16:48.823Z,69.58
2023-01-25T02:17:48.695Z,64.73
2023-01-25T02:18:48.777Z,60.46
2023-01-25T02:19:48.670Z,64.98
2023-01-25T02:20:49.623Z,64.94
2023-01-25T02:21:48.663Z,62.26
2023-01-25T02:22:48.675Z,67.43
2023-01-25T02:23:48.682Z,74.78
2023-01-25T02:24:48.648Z,64.92
2023-01-25T02:25:48.631Z,56.69
2023-01-25T02:26:48.610Z,63.19
2023-01-25T02:27:48.612Z,66.39
2023-01-25T02:28:48.589Z,61.94
2023-01-25T02:29:48.572Z,59.79
2023-01-25T02:30:48.601Z,60.13
2023-01-25T02:31:48.642Z,60.55
2023-01-25T02:32:48.555Z,59.49
2023-01-25T02:33:48.550Z,58.82
2023-01-25T02:34:48.513Z,63.41
2023-01-25T02:35:48.545Z,62.92
2023-01-25T02:36:49.052Z,68.53
2023-01-25T02:37:48.480Z,61.56
2023-01-25T02:38:48.484Z,61.99
2023-01-25T02:39:48.505Z,68.84
2023-01-25T02:40:48.420Z,57.73
2023-01-25T02:41:48.450Z,67.67
2023-01-25T02:42:48.461Z,62.92
2023-01-25T02:43:48.479Z,62.47
2023-01-25T02:44:48.392Z,64.34
2023-01-25T02:45:48.474Z,66.91
2023-01-25T02:46:48.501Z,60.42
2023-01-25T02:47:48.443Z,62.43
2023-01-25T02:48:48.387Z,60.44
2023-01-25T02:49:49.224Z,57.14
2023-01-25T02:50:48.318Z,56.22
2023-01-25T02:51:48.996Z,66.49
2023-01-25T02:52:48.320Z,54.63
2023-01-25T02:53:48.291Z,61.73
2023-01-25T02:54:48.360Z,65.45
2023-01-25T02:55:48.295Z,67.13
2023-01-25T02:56:48.273Z,57.37
2023-01-25T02:57:48.288Z,64.82
2023-01-25T02:58:48.276Z,61.20
2023-01-25T02:59:48.294Z,70.65
2023-01-25T03:00:48.253Z,63.52
2023-01-25T03:01:48.395Z,69.93
2023-01-25T03:02:49.053Z,70.33
2023-01-25T03:03:48.243Z,53.45
2023-01-25T03:04:49.069Z,62.62
2023-01-25T03:05:48.211Z,67.71
2023-01-25T03:06:48.180Z,63.76
2023-01-25T03:07:48.161Z,60.42
2023-01-25T03:08:48.214Z,62.77
2023-01-25T03:09:48.198Z,68.95
2023-01-25T03:10:48.160Z,49.35
2023-01-25T03:11:48.153Z,59.07
2023-01-25T03:12:48.107Z,61.36
2023-01-25T03:13:48.092Z,63.28
2023-01-25T03:14:48.109Z,58.09
2023-01-25T03:15:48.179Z,60.72
2023-01-25T03:16:48.106Z,65.74
2023-01-25T03:17:48.054Z,67.77
2023-01-25T03:18:48.121Z,56.36
2023-01-25T03:19:48.067Z,63.08
2023-01-25T03:20:48.069Z,66.36
2023-01-25T03:21:48.055Z,69.78
2023-01-25T03:22:48.071Z,63.43
2023-01-25T03:23:48.133Z,58.81
2023-01-25T03:24:47.965Z,71.65
2023-01-25T03:25:47.967Z,66.15
2023-01-25T03:26:47.969Z,72.10
2023-01-25T03:27:47.968Z,68.43
2023-01-25T03:28:47.999Z,62.91
2023-01-25T03:29:47.943Z,62.08
2023-01-25T03:30:47.939Z,64.47
2023-01-25T03:31:48.058Z,64.85
2023-01-25T03:32:47.927Z,69.68
2023-01-25T03:33:47.882Z,67.73
2023-01-25T03:34:47.931Z,69.98
2023-01-25T03:35:47.900Z,72.03
2023-01-25T03:36:47.918Z,67.91
2023-01-25T03:37:47.891Z,68.31
2023-01-25T03:38:47.877Z,59.08
2023-01-25T03:39:47.829Z,71.00
2023-01-25T03:40:48.119Z,65.24
2023-01-25T03:41:47.836Z,69.55
2023-01-25T03:42:47.823Z,64.63
2023-01-25T03:43:47.792Z,70.03
2023-01-25T03:44:47.786Z,68.97
2023-01-25T03:45:47.784Z,69.72
2023-01-25T03:46:47.850Z,65.61
2023-01-25T03:47:48.546Z,71.34
2023-01-25T03:48:47.732Z,66.48
2023-01-25T03:49:47.701Z,68.90
2023-01-25T03:50:47.723Z,70.89
2023-01-25T03:51:47.823Z,69.90
2023-01-25T03:52:47.708Z,71.92
2023-01-25T03:53:47.676Z,73.63
2023-01-25T03:54:47.708Z,66.42
2023-01-25T03:55:48.687Z,68.32
2023-01-25T03:56:47.650Z,70.59
2023-01-25T03:57:47.688Z,71.57
2023-01-25T03:58:47.676Z,68.96
2023-01-25T03:59:47.654Z,70.74
2023-01-25T04:00:47.649Z,73.64
2023-01-25T04:01:47.585Z,69.76
2023-01-25T04:02:48.529Z,70.59
2023-01-25T04:03:47.603Z,69.84
2023-01-25T04:04:47.543Z,73.89
2023-01-25T04:05:47.563Z,68.61
2023-01-25T04:06:47.560Z,69.30
2023-01-25T04:07:47.570Z,70.31
2023-01-25T04:08:47.510Z,67.58
2023-01-25T04:09:47.474Z,72.39
2023-01-25T04:10:47.500Z,71.88
2023-01-25T04:11:47.559Z,71.02
2023-01-25T04:12:47.470Z,71.95
2023-01-25T04:13:47.481Z,73.44
2023-01-25T04:14:47.429Z,74.13
2023-01-25T04:15:47.469Z,72.60
2023-01-25T04:16:47.474Z,70.57
2023-01-25T04:17:47.377Z,74.66
2023-01-25T04:18:47.432Z,76.21
2023-01-25T04:19:47.406Z,75.83
2023-01-25T04:20:47.394Z,73.56
2023-01-25T04:21:47.369Z,73.30
2023-01-25T04:22:47.364Z,71.06
2023-01-25T04:23:47.469Z,71.47
2023-01-25T04:24:47.322Z,73.71
2023-01-25T04:25:47.354Z,76.50
2023-01-25T04:26:47.328Z,73.68
2023-01-25T04:27:47.335Z,76.15
2023-01-25T04:28:47.338Z,73.74
2023-01-25T04:29:47.301Z,73.90
2023-01-25T04:30:47.283Z,73.37
2023-01-25T04:31:47.390Z,67.94
2023-01-25T04:32:47.395Z,73.23
2023-01-25T04:33:47.257Z,75.13
2023-01-25T04:34:47.268Z,75.14
2023-01-25T04:35:47.207Z,73.11
2023-01-25T04:36:47.216Z,72.80
2023-01-25T04:37:47.208Z,75.51
2023-01-25T04:38:47.238Z,76.39
2023-01-25T04:39:47.229Z,75.94
2023-01-25T04:40:47.203Z,75.96
2023-01-25T04:41:47.347Z,74.12
2023-01-25T04:42:47.164Z,76.19
2023-01-25T04:43:47.876Z,75.18
2023-01-25T04:44:47.170Z,76.28
2023-01-25T04:45:47.213Z,76.64
2023-01-25T04:46:47.107Z,75.88
2023-01-25T04:47:48.007Z,75.29
2023-01-25T04:48:47.101Z,74.84
2023-01-25T04:49:47.100Z,74.98
2023-01-25T04:50:47.099Z,76.11
2023-01-25T04:51:47.101Z,74.76
2023-01-25T04:52:47.060Z,76.15
2023-01-25T04:53:47.059Z,76.62
2023-01-25T04:54:47.028Z,73.79
2023-01-25T04:55:46.981Z,75.62
2023-01-25T04:56:47.001Z,76.12
2023-01-25T04:57:46.963Z,72.68
2023-01-25T04:58:47.082Z,73.17
2023-01-25T04:59:46.983Z,75.03
2023-01-25T05:00:46.972Z,76.88
2023-01-25T05:01:46.932Z,74.71
2023-01-25T05:02:47.038Z,75.56
2023-01-25T05:03:46.971Z,73.93
2023-01-25T05:04:46.918Z,75.80
2023-01-25T05:05:46.910Z,74.99
2023-01-25T05:06:46.889Z,75.36
2023-01-25T05:07:46.869Z,76.60
2023-01-25T05:08:46.894Z,76.67
2023-01-25T05:09:46.895Z,75.00
2023-01-25T05:10:46.832Z,74.79
2023-01-25T05:11:46.851Z,75.22
2023-01-25T05:12:46.837Z,75.47
2023-01-25T05:13:46.827Z,78.33
2023-01-25T05:14:46.809Z,76.27
2023-01-25T05:15:46.824Z,77.08
2023-01-25T05:16:46.875Z,76.88
2023-01-25T05:17:46.768Z,77.66
2023-01-25T05:18:49.108Z,77.56
2023-01-25T05:19:47.790Z,76.67
2023-01-25T05:20:46.748Z,76.99
2023-01-25T05:21:46.707Z,76.50
2023-01-25T05:22:46.718Z,77.09
2023-01-25T05:23:46.752Z,77.98
2023-01-25T05:24:46.716Z,76.88
2023-01-25T05:25:46.669Z,76.99
2023-01-25T05:26:46.666Z,77.25
2023-01-25T05:27:46.627Z,76.71
2023-01-25T05:28:46.628Z,77.04
2023-01-25T05:29:46.633Z,77.15
2023-01-25T05:30:46.798Z,77.38
2023-01-25T05:31:46.664Z,76.64
2023-01-25T05:32:46.581Z,76.39
2023-01-25T05:33:46.601Z,76.56
2023-01-25T05:34:46.966Z,78.09
2023-01-25T05:35:46.562Z,76.35
2023-01-25T05:36:46.505Z,77.71
2023-01-25T05:37:46.567Z,77.09
2023-01-25T05:38:46.548Z,76.32
2023-01-25T05:39:46.502Z,80.26
2023-01-25T05:40:46.539Z,78.51
2023-01-25T05:41:46.489Z,79.59
2023-01-25T05:42:47.124Z,79.47
2023-01-25T05:43:46.607Z,78.87
2023-01-25T05:44:47.920Z,77.89
2023-01-25T05:45:47.454Z,77.60
2023-01-25T05:46:46.464Z,78.21
2023-01-25T05:47:46.450Z,79.88
2023-01-25T05:48:46.901Z,80.08
2023-01-25T05:49:46.544Z,79.46
2023-01-25T05:50:46.393Z,80.17
2023-01-25T05:51:46.426Z,77.18
2023-01-25T05:52:46.583Z,76.66
2023-01-25T05:53:46.364Z,78.69
2023-01-25T05:54:46.511Z,76.97
2023-01-25T05:55:46.372Z,77.40
2023-01-25T05:56:46.337Z,78.06
2023-01-25T05:57:46.332Z,77.70
2023-01-25T05:58:46.317Z,76.50
2023-01-25T05:59:46.310Z,77.32
2023-01-25T06:00:46.344Z,79.04
2023-01-25T06:01:46.295Z,78.43
2023-01-25T06:02:46.406Z,75.13
2023-01-25T06:03:46.416Z,77.41
2023-01-25T06:04:46.275Z,76.79
2023-01-25T06:05:46.235Z,77.83
2023-01-25T06:06:46.223Z,77.32
2023-01-25T06:07:46.238Z,75.49
2023-01-25T06:08:46.244Z,78.35
2023-01-25T06:09:46.220Z,77.66
2023-01-25T06:10:46.167Z,76.27
2023-01-25T06:11:46.197Z,77.10
2023-01-25T06:12:46.214Z,77.80
2023-01-25T06:13:46.208Z,76.42
2023-01-25T06:14:46.196Z,77.74
2023-01-25T06:15:46.119Z,77.54
2023-01-25T06:16:46.142Z,77.76
2023-01-25T06:17:46.112Z,79.67
2023-01-25T06:18:46.119Z,79.19
2023-01-25T06:19:46.098Z,77.33
2023-01-25T06:20:46.123Z,79.19
2023-01-25T06:21:46.078Z,77.63
2023-01-25T06:22:46.047Z,78.22
2023-01-25T06:23:46.045Z,79.79
2023-01-25T06:24:46.037Z,78.38
2023-01-25T06:25:46.031Z,78.24
2023-01-25T06:26:45.973Z,77.98
2023-01-25T06:27:45.981Z,76.92
2023-01-25T06:28:46.012Z,76.79
2023-01-25T06:29:46.015Z,77.46
2023-01-25T06:30:46.000Z,79.06
2023-01-25T06:31:46.029Z,78.24
2023-01-25T06:32:45.967Z,77.00
2023-01-25T06:33:46.961Z,78.00
2023-01-25T06:34:45.976Z,77.61
2023-01-25T06:35:45.913Z,79.07
2023-01-25T06:36:45.931Z,77.75
2023-01-25T06:37:46.440Z,76.95
2023-01-25T06:38:45.909Z,77.75
2023-01-25T06:39:45.893Z,75.58
2023-01-25T06:40:45.910Z,78.02
2023-01-25T06:41:45.823Z,76.27
2023-01-25T06:42:45.826Z,77.44
2023-01-25T06:43:45.833Z,75.60
2023-01-25T06:44:45.833Z,78.89
2023-01-25T06:45:45.789Z,77.31
2023-01-25T06:46:45.883Z,76.89
2023-01-25T06:47:45.813Z,77.83
2023-01-25T06:48:45.772Z,79.20
2023-01-25T06:49:45.769Z,76.59
2023-01-25T06:50:45.819Z,76.88
2023-01-25T06:51:45.763Z,75.42
2023-01-25T06:52:45.821Z,77.45
2023-01-25T06:53:45.685Z,77.38
2023-01-25T06:54:45.703Z,76.78
2023-01-25T06:55:45.714Z,77.30
2023-01-25T06:56:45.726Z,77.89
2023-01-25T06:57:45.643Z,78.38
2023-01-25T06:58:45.657Z,76.34
2023-01-25T06:59:45.677Z,76.80
2023-01-25T07:00:45.651Z,77.00
2023-01-25T07:01:45.730Z,77.16
2023-01-25T07:02:45.709Z,76.40
2023-01-25T07:03:45.625Z,78.02
2023-01-25T07:04:45.617Z,78.36
2023-01-25T07:05:45.598Z,76.50
2023-01-25T07:06:45.608Z,77.46
2023-01-25T07:07:45.547Z,76.69
2023-01-25T07:08:45.573Z,75.36
2023-01-25T07:09:45.504Z,76.56
2023-01-25T07:10:46.543Z,76.03
2023-01-25T07:11:45.562Z,77.45
2023-01-25T07:12:45.520Z,78.97
2023-01-25T07:13:45.518Z,76.06
2023-01-25T07:14:45.466Z,76.16
2023-01-25T07:15:45.518Z,75.95
2023-01-25T07:16:45.467Z,77.99
2023-01-25T07:17:46.445Z,79.16
2023-01-25T07:18:45.429Z,76.78
2023-01-25T07:19:46.049Z,76.80
2023-01-25T07:20:45.399Z,77.18
2023-01-25T07:21:45.407Z,76.78
2023-01-25T07:22:45.445Z,79.07
2023-01-25T07:23:45.432Z,77.57
2023-01-25T07:24:45.390Z,75.40
2023-01-25T07:25:45.354Z,78.47
2023-01-25T07:26:45.378Z,77.52
2023-01-25T07:27:45.375Z,76.28
2023-01-25T07:28:45.327Z,78.09
2023-01-25T07:29:45.316Z,78.40
2023-01-25T07:30:45.395Z,77.98
2023-01-25T07:31:45.430Z,76.87
2023-01-25T07:32:45.276Z,75.93
2023-01-25T07:33:45.343Z,76.83
2023-01-25T07:34:45.229Z,77.42
2023-01-25T07:35:45.234Z,77.97
2023-01-25T07:36:45.191Z,78.03
2023-01-25T07:37:45.268Z,76.57
2023-01-25T07:38:45.269Z,75.67
2023-01-25T07:39:45.191Z,80.04
2023-01-25T07:40:45.224Z,78.59
2023-01-25T07:41:45.210Z,77.73
2023-01-25T07:42:45.180Z,77.83
2023-01-25T07:43:45.225Z,78.13
2023-01-25T07:44:45.895Z,76.32
2023-01-25T07:45:45.157Z,76.78
2023-01-25T07:46:45.149Z,78.17
2023-01-25T07:47:45.142Z,77.24
2023-01-25T07:48:45.110Z,77.63
2023-01-25T07:49:45.157Z,77.74
2023-01-25T07:50:45.131Z,76.36
2023-01-25T07:51:45.053Z,78.11
2023-01-25T07:52:45.087Z,78.29
2023-01-25T07:53:45.054Z,75.63
2023-01-25T07:54:45.105Z,74.43
2023-01-25T07:55:45.080Z,79.11
2023-01-25T07:56:45.059Z,77.37
2023-01-25T07:57:45.155Z,77.68
2023-01-25T07:59:11.409Z,76.04
2023-01-25T07:59:46.240Z,74.33
2023-01-25T08:00:44.987Z,73.82
2023-01-25T08:01:44.981Z,73.61
2023-01-25T08:02:44.983Z,77.25
2023-01-25T08:03:44.974Z,76.72
2023-01-25T08:04:45.026Z,74.19
2023-01-25T08:05:44.944Z,76.61
2023-01-25T08:06:44.945Z,78.32
2023-01-25T08:07:44.912Z,73.78
2023-01-25T08:08:44.980Z,75.42
2023-01-25T08:09:44.890Z,77.64
2023-01-25T08:10:44.871Z,75.18
2023-01-25T08:11:44.860Z,76.75
2023-01-25T08:12:44.854Z,76.09
2023-01-25T08:13:44.839Z,73.15
2023-01-25T08:14:44.811Z,77.80
2023-01-25T08:15:44.808Z,77.00
2023-01-25T08:16:44.802Z,77.04
2023-01-25T08:17:44.784Z,75.60
2023-01-25T08:18:44.759Z,76.16
2023-01-25T08:19:45.486Z,77.87
2023-01-25T08:20:44.752Z,76.56
2023-01-25T08:21:44.781Z,75.66
2023-01-25T08:22:45.354Z,76.44
2023-01-25T08:23:44.851Z,75.72
2023-01-25T08:24:44.769Z,74.26
2023-01-25T08:25:44.731Z,76.65
2023-01-25T08:26:44.776Z,76.27
2023-01-25T08:27:44.690Z,77.28
2023-01-25T08:28:44.701Z,77.17
2023-01-25T08:29:44.625Z,74.05
2023-01-25T08:30:56.434Z,73.28
2023-01-25T08:31:46.751Z,76.77
2023-01-25T08:32:44.661Z,75.92
2023-01-25T08:33:44.704Z,75.92
2023-01-25T08:34:44.604Z,76.25
2023-01-25T08:35:44.582Z,75.97
2023-01-25T08:36:44.622Z,75.10
2023-01-25T08:37:44.571Z,75.16
2023-01-25T08:38:44.538Z,74.62
2023-01-25T08:39:44.553Z,75.52
2023-01-25T08:40:44.550Z,77.03
2023-01-25T08:41:44.596Z,76.97
2023-01-25T08:42:44.493Z,75.54
2023-01-25T08:43:44.555Z,73.66
2023-01-25T08:44:44.540Z,76.48
2023-01-25T08:45:44.491Z,75.10
2023-01-25T08:46:44.536Z,73.38
2023-01-25T08:47:44.536Z,74.61
2023-01-25T08:48:44.508Z,76.74
2023-01-25T08:49:44.491Z,76.41
2023-01-25T08:50:44.723Z,76.49
2023-01-25T08:51:44.531Z,77.80
2023-01-25T08:52:44.733Z,76.75
2023-01-25T08:53:44.768Z,75.08
2023-01-25T08:54:44.679Z,75.42
2023-01-25T08:55:44.378Z,73.69
2023-01-25T08:56:44.339Z,76.81
2023-01-25T08:57:44.335Z,75.18
2023-01-25T08:58:44.330Z,76.09
2023-01-25T08:59:44.302Z,74.40
2023-01-25T09:00:44.385Z,78.55
2023-01-25T09:01:44.294Z,78.20
2023-01-25T09:02:44.569Z,72.42
2023-01-25T09:03:44.368Z,77.36
2023-01-25T09:04:44.233Z,76.12
2023-01-25T09:05:44.267Z,75.29
2023-01-25T09:06:44.235Z,73.66
2023-01-25T09:07:44.232Z,75.91
2023-01-25T09:08:44.242Z,74.69
2023-01-25T09:09:44.177Z,74.05
2023-01-25T09:10:44.230Z,71.81
2023-01-25T09:11:44.219Z,74.17
2023-01-25T09:12:44.279Z,77.37
2023-01-25T09:13:44.135Z,73.33
2023-01-25T09:14:44.146Z,73.77
2023-01-25T09:15:44.248Z,75.12
2023-01-25T09:16:44.104Z,73.06
2023-01-25T09:17:44.110Z,74.56
2023-01-25T09:18:44.104Z,77.22
2023-01-25T09:19:44.133Z,75.78
2023-01-25T09:20:44.155Z,76.02
2023-01-25T09:21:44.119Z,73.92
2023-01-25T09:22:44.042Z,75.61
2023-01-25T09:23:51.075Z,76.22
2023-01-25T09:24:46.070Z,76.34
2023-01-25T09:25:44.173Z,74.82
2023-01-25T09:26:55.788Z,75.04
2023-01-25T09:27:46.001Z,75.80
2023-01-25T09:28:44.023Z,75.09
2023-01-25T09:29:59.935Z,77.83
2023-01-25T09:30:51.073Z,76.56
2023-01-25T09:31:46.159Z,75.08
2023-01-25T09:32:44.086Z,75.48
2023-01-25T09:33:43.947Z,76.48
2023-01-25T09:34:44.085Z,75.28
2023-01-25T09:35:43.934Z,77.86
2023-01-25T09:36:43.905Z,75.92
2023-01-25T09:37:43.918Z,74.18
2023-01-25T09:38:43.911Z,76.44
2023-01-25T09:39:44.041Z,74.11
2023-01-25T09:40:43.937Z,75.66
2023-01-25T09:41:43.886Z,74.75
2023-01-25T09:42:44.874Z,76.77
2023-01-25T09:43:44.535Z,75.22
2023-01-25T09:44:43.797Z,77.19
2023-01-25T09:45:43.827Z,76.66
2023-01-25T09:46:44.398Z,77.53
2023-01-25T09:47:43.887Z,73.12
2023-01-25T09:48:43.824Z,75.82
2023-01-25T09:49:43.785Z,75.61
2023-01-25T09:50:43.826Z,75.71
2023-01-25T09:51:43.795Z,75.98
2023-01-25T09:52:44.544Z,76.24
2023-01-25T09:53:43.783Z,75.96
2023-01-25T09:54:46.994Z,75.83
2023-01-25T09:55:47.159Z,75.99
2023-01-25T09:56:46.803Z,77.98
2023-01-25T09:57:45.782Z,76.57
2023-01-25T09:58:44.256Z,75.67
2023-01-25T09:59:44.766Z,77.43
2023-01-25T10:00:47.395Z,76.23
2023-01-25T10:01:48.245Z,77.02
2023-01-25T10:02:45.768Z,74.76
2023-01-25T10:03:46.795Z,74.42
2023-01-25T10:04:45.183Z,74.81
2023-01-25T10:05:44.429Z,75.30
2023-01-25T10:06:51.450Z,75.18
2023-01-25T10:07:52.635Z,76.48
2023-01-25T10:08:50.093Z,76.86
2023-01-25T10:09:46.828Z,77.05
2023-01-25T10:10:48.370Z,74.72
2023-01-25T10:11:45.344Z,77.59
2023-01-25T10:12:44.546Z,77.55
2023-01-25T10:13:43.826Z,74.15
2023-01-25T10:14:45.228Z,75.92
2023-01-25T10:15:43.862Z,74.98
2023-01-25T10:16:47.085Z,75.05
2023-01-25T10:17:44.633Z,76.24
2023-01-25T10:18:44.403Z,77.00
2023-01-25T10:19:44.248Z,72.65
2023-01-25T10:20:46.342Z,77.03
2023-01-25T10:21:47.206Z,77.33
2023-01-25T10:22:44.613Z,77.51
2023-01-25T10:23:45.480Z,77.42
2023-01-25T10:24:43.799Z,73.83
2023-01-25T10:25:43.485Z,75.65
2023-01-25T10:26:44.457Z,74.96
2023-01-25T10:27:44.407Z,73.02
2023-01-25T10:28:45.015Z,74.56
2023-01-25T10:29:44.025Z,76.51
2023-01-25T10:30:44.581Z,78.24
2023-01-25T10:31:43.354Z,76.59
2023-01-25T10:32:55.505Z,71.94
2023-01-25T10:33:45.329Z,77.65
2023-01-25T10:34:55.343Z,76.39
2023-01-25T10:35:50.204Z,75.94
2023-01-25T10:36:46.719Z,76.52
2023-01-25T10:37:45.518Z,76.24
2023-01-25T10:38:43.296Z,76.62
2023-01-25T10:39:43.274Z,74.53
2023-01-25T10:40:43.228Z,75.70
2023-01-25T10:41:43.241Z,77.13
2023-01-25T10:42:43.217Z,75.80
2023-01-25T10:43:43.281Z,71.07
2023-01-25T10:44:43.239Z,75.81
2023-01-25T10:45:43.237Z,75.91
2023-01-25T10:46:43.637Z,77.26
2023-01-25T10:47:43.377Z,74.17
2023-01-25T10:48:48.913Z,77.55
2023-01-25T10:49:47.171Z,74.31
2023-01-25T10:50:46.139Z,75.00
2023-01-25T10:51:44.596Z,76.86
2023-01-25T10:52:46.614Z,75.77
2023-01-25T10:53:44.599Z,76.59
2023-01-25T10:54:49.630Z,75.82
2023-01-25T10:55:45.981Z,77.73
2023-01-25T10:56:44.719Z,74.97
2023-01-25T10:57:44.758Z,73.97
2023-01-25T10:58:44.508Z,75.11
2023-01-25T10:59:46.346Z,76.25
2023-01-25T11:00:42.991Z,74.33
2023-01-25T11:01:43.012Z,77.85
2023-01-25T11:02:42.965Z,77.35
2023-01-25T11:03:42.989Z,76.94
2023-01-25T11:04:44.305Z,75.47
2023-01-25T11:05:44.306Z,75.83
2023-01-25T11:06:44.895Z,75.94
2023-01-25T11:07:45.342Z,75.45
2023-01-25T11:08:43.445Z,75.21
2023-01-25T11:09:44.606Z,77.95
2023-01-25T11:10:46.963Z,74.85
2023-01-25T11:11:47.191Z,76.15
2023-01-25T11:12:44.028Z,74.22
2023-01-25T11:13:45.320Z,77.27
2023-01-25T11:14:45.985Z,78.03
2023-01-25T11:15:46.137Z,77.37
2023-01-25T11:16:46.737Z,74.85
2023-01-25T11:17:47.157Z,77.65
2023-01-25T11:18:46.415Z,78.74
2023-01-25T11:19:47.142Z,78.21
2023-01-25T11:20:43.341Z,76.83
2023-01-25T11:21:43.113Z,75.63
2023-01-25T11:22:44.638Z,76.99
2023-01-25T11:23:45.707Z,77.77
2023-01-25T11:24:46.935Z,73.96
2023-01-25T11:25:44.475Z,75.82
2023-01-25T11:26:45.411Z,76.51
2023-01-25T11:27:44.026Z,75.93
2023-01-25T11:28:43.476Z,77.58
2023-01-25T11:29:42.724Z,76.67
2023-01-25T11:30:42.962Z,77.98
2023-01-25T11:31:45.290Z,75.10
2023-01-25T11:32:46.244Z,75.43
2023-01-25T11:33:44.050Z,75.45
2023-01-25T11:34:44.327Z,76.94
2023-01-25T11:35:42.989Z,75.50
2023-01-25T11:36:45.303Z,74.31
2023-01-25T11:37:42.906Z,76.61
2023-01-25T11:38:47.813Z,74.23
2023-01-25T11:39:44.770Z,77.99
2023-01-25T11:40:44.421Z,76.28
2023-01-25T11:41:47.544Z,75.30
2023-01-25T11:42:43.148Z,74.14
2023-01-25T11:43:43.100Z,76.73
2023-01-25T11:44:43.027Z,76.52
2023-01-25T11:45:44.469Z,74.60
2023-01-25T11:46:43.147Z,75.97
2023-01-25T11:47:43.089Z,75.65
2023-01-25T11:48:42.524Z,74.96
2023-01-25T11:49:42.467Z,75.36
2023-01-25T11:50:42.642Z,76.87
2023-01-25T11:51:42.489Z,76.38
2023-01-25T11:52:42.481Z,75.47
2023-01-25T11:53:42.447Z,75.89
2023-01-25T11:54:42.429Z,76.43
2023-01-25T11:55:42.441Z,76.17
2023-01-25T11:56:42.432Z,76.29
2023-01-25T11:57:43.798Z,76.88
2023-01-25T11:58:42.665Z,76.63
2023-01-25T11:59:42.888Z,75.81
2023-01-25T12:00:42.863Z,76.94
2023-01-25T12:01:42.372Z,76.77
2023-01-25T12:02:42.618Z,74.60
2023-01-25T12:03:42.387Z,76.70
2023-01-25T12:04:42.920Z,77.67
2023-01-25T12:05:42.317Z,76.25
2023-01-25T12:06:42.346Z,76.72
2023-01-25T12:07:42.272Z,73.50
2023-01-25T12:08:42.933Z,76.75
2023-01-25T12:09:42.268Z,77.30
2023-01-25T12:10:42.257Z,76.52
2023-01-25T12:11:42.857Z,76.60
2023-01-25T12:12:42.229Z,75.94
2023-01-25T12:13:42.201Z,77.87
2023-01-25T12:14:42.222Z,76.53
2023-01-25T12:15:42.203Z,75.69
2023-01-25T12:16:42.153Z,75.85
2023-01-25T12:17:42.222Z,79.35
2023-01-25T12:18:42.153Z,78.23
2023-01-25T12:19:42.272Z,75.86
2023-01-25T12:20:42.181Z,78.58
2023-01-25T12:21:42.123Z,79.89
2023-01-25T12:22:42.161Z,77.84
2023-01-25T12:23:42.134Z,77.58
2023-01-25T12:24:42.141Z,78.03
2023-01-25T12:25:42.984Z,77.00
2023-01-25T12:26:42.129Z,76.91
2023-01-25T12:27:42.014Z,77.99
2023-01-25T12:28:42.048Z,77.87
2023-01-25T12:29:42.099Z,77.72
2023-01-25T12:30:42.045Z,78.49
2023-01-25T12:31:42.067Z,77.15
2023-01-25T12:32:42.034Z,76.84
2023-01-25T12:33:41.972Z,78.05
2023-01-25T12:34:42.997Z,77.09
2023-01-25T12:35:42.067Z,77.61
2023-01-25T12:36:42.958Z,77.47
2023-01-25T12:37:41.927Z,78.20
2023-01-25T12:38:42.472Z,77.50
2023-01-25T12:39:42.016Z,77.45
2023-01-25T12:40:41.955Z,77.59
2023-01-25T12:41:41.968Z,78.08
2023-01-25T12:42:41.938Z,77.01
2023-01-25T12:43:42.295Z,78.02
2023-01-25T12:44:41.943Z,78.16
2023-01-25T12:45:41.898Z,78.26
2023-01-25T12:46:41.956Z,79.20
2023-01-25T12:47:41.872Z,79.20
2023-01-25T12:48:41.850Z,76.88
2023-01-25T12:49:41.864Z,77.90
2023-01-25T12:50:41.819Z,76.35
2023-01-25T12:51:41.836Z,78.56
2023-01-25T12:52:41.824Z,76.33